Portada
METAR-TAF:

METAR-TAF

Aeropuertos :

Soldotna, Alaska, Estados Unidos

latitud: 60-29N, longitud: 151-02W, altitud: 33 m

Observación

El informe se hizo hace 23 minutos, a las 07:56 UTC
Viento calma
Temperatura -4°C
Humedad 86%
Presión 995 hPa
Visibilidad: 3.2 km
Escasas nubes a una altura de 2200 ft
Cielo cubierto a una altura de 3300 ft
poca nieve, neblina

METAR: PASX 280756Z AUTO 00000KT 2SM -SN BR FEW022 OVC033 M04/M06 A2939 RMK AO2 SLP961 P0001 T10441056 FZRANO

Hora: 23:19 (08:19 UTC)


TAF: falta

Observaciones y pronósticos meteorológicos de más de 4000 aeropuertos (mensajes METAR y TAF).

Los puntos amarillos y rojos representan las estaciones disponibles.

Ponga el ratón en el punto deseado para ver el nombre de la estación.

Haga clic para ver las observaciones y los pronósticos meteorológicos.

Para cambiar el mapa : haga clic en los botones verdes con una cruz de color negro para hacer un zoom, en el botón verde con un guión para alejar o en las flechas verdes para mapas adyacentes.


METAR-TAF: